Time;durP1;ratioP1;P1;durP2;ratioP2;P2;SDS_P1;SDS_P2;PMS_P1;PMS_P2;Temp;Humidity;BMP_temperature;BMP_pressure;BME280_temperature;BME280_humidity;BME280_pressure;Samples;Min_cycle;Max_cycle;Signal;HPM_P1;HPM_P2
2022/01/21 00:01:34;;;;;;;8.40;3.80;;;;;;;15.56;40.05;102991.97;4992287;28;20378;-86
2022/01/21 00:04:00;;;;;;;7.85;3.88;;;;;;;15.52;40.43;102985.97;4992149;28;20030;-86
2022/01/21 00:06:25;;;;;;;9.43;4.07;;;;;;;15.49;40.00;102982.63;4992306;28;20084;-86
2022/01/21 00:08:51;;;;;;;10.55;4.38;;;;;;;15.40;40.59;102984.78;4992281;28;20034;-86
2022/01/21 00:11:17;;;;;;;8.85;3.83;;;;;;;15.40;40.23;102984.78;4992281;28;20038;-86
2022/01/21 00:13:43;;;;;;;9.68;3.92;;;;;;;15.41;40.05;102986.47;4992084;28;20027;-86
2022/01/21 00:16:17;;;;;;;8.98;3.88;;;;;;;15.42;39.84;102985.56;4992033;28;20034;-86
2022/01/21 00:18:55;;;;;;;9.93;3.83;;;;;;;15.47;39.93;102991.47;4992121;28;20027;-86
2022/01/21 00:32:17;;;;;;;8.15;3.15;;;;;;;15.82;39.49;102970.41;4992215;28;20548;-86
2022/01/21 00:34:43;;;;;;;7.47;3.50;;;;;;;15.82;39.49;102958.97;4991699;28;20022;-86
2022/01/21 00:37:08;;;;;;;5.50;2.92;;;;;;;15.84;39.46;102963.25;4991969;28;20030;-86
2022/01/21 00:39:35;;;;;;;9.35;3.15;;;;;;;15.84;39.19;102960.59;4992051;28;20030;-86
2022/01/21 00:44:29;;;;;;;8.50;3.25;;;;;;;15.75;39.29;102974.28;4991714;28;20408;-85
2022/01/21 00:46:54;;;;;;;7.18;2.90;;;;;;;15.81;39.10;102973.13;4991917;28;20022;-86
2022/01/21 00:49:20;;;;;;;5.85;2.88;;;;;;;15.84;39.32;102965.91;4991742;28;20070;-85
2022/01/21 00:51:45;;;;;;;9.45;3.05;;;;;;;15.81;39.06;102958.09;4991816;28;20388;-86
2022/01/21 00:54:11;;;;;;;7.65;3.30;;;;;;;15.79;39.05;102959.97;4993574;28;20031;-86
2022/01/21 00:56:36;;;;;;;7.63;2.85;;;;;;;15.79;39.16;102970.56;4995517;28;20468;-86
2022/01/21 00:59:01;;;;;;;7.47;3.10;;;;;;;15.72;39.10;102963.81;4995450;28;20026;-86
2022/01/21 01:01:27;;;;;;;7.70;3.03;;;;;;;15.65;39.21;102967.69;4995390;28;20026;-85
2022/01/21 01:03:52;;;;;;;6.07;2.88;;;;;;;15.61;39.01;102974.94;4995051;28;20361;-86
2022/01/21 01:06:18;;;;;;;8.95;2.53;;;;;;;15.62;39.17;102962.53;4995113;28;20112;-85
2022/01/21 01:08:44;;;;;;;8.60;3.25;;;;;;;15.57;39.27;102960.13;4995210;28;20018;-85
2022/01/21 01:21:48;;;;;;;6.30;3.70;;;;;;;15.32;39.90;102959.56;4994156;28;20045;-85
2022/01/21 01:29:41;;;;;;;7.95;3.35;;;;;;;15.37;39.50;102971.66;4995187;28;20448;-85
2022/01/21 01:32:07;;;;;;;10.13;3.50;;;;;;;15.35;39.14;102962.94;4994796;28;20022;-85
2022/01/21 01:34:32;;;;;;;7.28;3.65;;;;;;;15.41;39.57;102965.28;4994519;28;20030;-86
2022/01/21 01:37:02;;;;;;;8.82;4.30;;;;;;;15.45;39.71;102956.28;4994764;28;20022;-85
2022/01/21 01:39:37;;;;;;;6.97;3.92;;;;;;;15.55;39.36;102956.69;4994600;28;20232;-85
2022/01/21 01:42:39;;;;;;;7.78;3.80;;;;;;;15.56;39.13;102955.78;4994558;28;20022;-85
2022/01/21 01:50:27;;;;;;;11.20;4.03;;;;;;;15.49;38.88;102956.13;4994208;28;20029;-85
2022/01/21 01:52:52;;;;;;;7.45;3.60;;;;;;;15.49;38.84;102959.63;4994497;28;20030;-86
2022/01/21 01:55:18;;;;;;;7.38;3.70;;;;;;;15.53;38.90;102952.41;4994494;28;20049;-85
2022/01/21 01:57:45;;;;;;;7.82;3.45;;;;;;;15.46;38.96;102944.75;4994287;28;20050;-85
2022/01/21 02:00:11;;;;;;;9.02;3.70;;;;;;;15.52;39.05;102940.97;4994446;28;20026;-86
2022/01/21 02:02:36;;;;;;;8.00;3.90;;;;;;;15.46;39.00;102947.41;4994205;28;20519;-86
2022/01/21 02:05:01;;;;;;;8.50;3.72;;;;;;;15.51;38.85;102951.63;4993083;28;20022;-86
2022/01/21 02:07:27;;;;;;;11.52;4.30;;;;;;;15.42;38.95;102947.59;4994221;28;20040;-86
2022/01/21 02:09:52;;;;;;;8.45;3.60;;;;;;;15.44;39.00;102943.97;4994212;28;20031;-86
2022/01/21 02:12:18;;;;;;;7.22;3.83;;;;;;;15.36;39.36;102945.25;4993944;28;20026;-86
2022/01/21 02:14:49;;;;;;;7.72;4.05;;;;;;;15.32;39.08;102944.53;4994045;28;20023;-86
2022/01/21 02:22:50;;;;;;;8.48;3.67;;;;;;;15.17;39.56;102940.84;4993741;28;20045;-85
2022/01/21 02:25:18;;;;;;;10.75;3.88;;;;;;;15.10;39.31;102941.22;4993329;28;20442;-86
2022/01/21 02:27:46;;;;;;;7.25;3.55;;;;;;;15.10;39.13;102941.22;4993827;28;20110;-86
2022/01/21 02:30:19;;;;;;;10.55;3.50;;;;;;;15.06;39.52;102933.41;4993676;28;20022;-86
2022/01/21 02:32:53;;;;;;;8.05;3.10;;;;;;;15.10;39.15;102939.41;4993556;28;20034;-86
2022/01/21 02:35:20;;;;;;;7.05;3.30;;;;;;;15.10;39.34;102938.56;4993587;28;20026;-86
2022/01/21 02:37:47;;;;;;;8.30;2.92;;;;;;;15.11;39.38;102937.66;4993646;28;20045;-86
2022/01/21 02:40:14;;;;;;;8.63;3.35;;;;;;;15.17;39.54;102943.50;4993085;28;20018;-86
2022/01/21 02:42:40;;;;;;;8.98;3.38;;;;;;;15.23;38.81;102939.72;4993277;28;20038;-86
2022/01/21 02:45:07;;;;;;;4.85;2.67;;;;;;;15.27;38.90;102935.97;4993381;28;20110;-86
2022/01/21 02:47:33;;;;;;;8.38;3.17;;;;;;;15.32;38.85;102944.53;4993338;28;20380;-86
2022/01/21 02:49:58;;;;;;;5.50;2.38;;;;;;;15.31;38.63;102942.84;4993826;28;20479;-86
2022/01/21 02:52:27;;;;;;;8.50;3.00;;;;;;;15.32;38.66;102941.03;4993130;28;20535;-87
2022/01/21 02:54:53;;;;;;;5.95;2.20;;;;;;;15.34;38.71;102933.88;4975523;28;20381;-86
2022/01/21 02:57:18;;;;;;;7.88;2.83;;;;;;;15.33;38.83;102942.78;4992739;28;20026;-86
2022/01/21 02:59:44;;;;;;;6.22;2.88;;;;;;;15.34;39.03;102937.38;4993211;28;20073;-86
2022/01/21 03:02:10;;;;;;;7.10;2.80;;;;;;;15.29;38.74;102930.63;4993144;28;20038;-86
2022/01/21 03:04:45;;;;;;;5.80;2.13;;;;;;;15.19;39.22;102940.78;4992894;28;20053;-86
2022/01/21 03:07:11;;;;;;;10.07;3.67;;;;;;;15.07;39.10;102943.06;4993110;28;20034;-86
2022/01/21 03:09:36;;;;;;;6.05;2.72;;;;;;;15.13;39.05;102938.44;4992780;28;20022;-86
2022/01/21 03:12:02;;;;;;;4.90;3.05;;;;;;;15.18;39.21;102933.75;4992776;28;20026;-86
2022/01/21 03:14:27;;;;;;;5.32;2.10;;;;;;;15.19;39.09;102933.69;4993175;28;20022;-86
2022/01/21 03:16:53;;;;;;;4.78;2.45;;;;;;;15.17;39.23;102932.06;4991991;28;20388;-86
2022/01/21 03:19:19;;;;;;;5.25;2.20;;;;;;;15.13;39.01;102927.84;4992978;28;20018;-85
2022/01/21 03:21:44;;;;;;;6.30;2.60;;;;;;;15.05;39.14;102925.56;4992938;28;20030;-86
2022/01/21 03:24:10;;;;;;;4.55;2.47;;;;;;;14.96;39.36;102929.47;4992539;28;20080;-86
2022/01/21 03:26:35;;;;;;;7.20;3.47;;;;;;;14.87;38.95;102916.69;4992579;28;20053;-86
2022/01/21 03:29:03;;;;;;;5.07;2.80;;;;;;;14.82;39.50;102921.31;4992737;28;20113;-86
2022/01/21 03:31:30;;;;;;;4.65;2.20;;;;;;;14.86;39.74;102928.19;4992659;28;20492;-85
2022/01/21 03:33:59;;;;;;;8.25;2.40;;;;;;;14.90;39.44;102929.75;4992538;28;20117;-85
2022/01/21 03:36:25;;;;;;;7.20;2.63;;;;;;;15.03;39.26;102928.28;4992520;28;20503;-85
2022/01/21 03:38:50;;;;;;;5.88;1.90;;;;;;;15.12;39.07;102926.13;4992557;28;20081;-86
2022/01/21 03:41:16;;;;;;;5.65;2.22;;;;;;;15.18;38.94;102925.81;4992262;28;20023;-86
2022/01/21 03:43:41;;;;;;;7.13;2.45;;;;;;;15.18;39.06;102915.25;4992255;28;20039;-85
2022/01/21 03:46:07;;;;;;;3.83;2.20;;;;;;;15.20;38.73;102930.09;4992281;28;20022;-86
2022/01/21 03:48:33;;;;;;;6.63;2.38;;;;;;;15.21;38.72;102938.94;4992523;28;20034;-86
2022/01/21 03:50:59;;;;;;;7.68;2.03;;;;;;;15.25;38.39;102933.41;4992467;28;20400;-85
2022/01/21 03:53:24;;;;;;;4.80;2.08;;;;;;;15.25;38.73;102937.84;4992224;28;20027;-86
2022/01/21 03:55:49;;;;;;;5.40;2.47;;;;;;;15.19;38.81;102933.69;4992282;28;20087;-86
2022/01/21 03:58:15;;;;;;;6.30;2.00;;;;;;;15.17;38.86;102930.25;4992139;28;20492;-86
2022/01/21 04:00:46;;;;;;;8.70;2.58;;;;;;;14.94;39.10;102931.34;4992036;28;20490;-86
2022/01/21 04:03:13;;;;;;;5.15;2.53;;;;;;;14.92;39.29;102929.69;4990857;28;20023;-86
2022/01/21 04:05:38;;;;;;;4.25;2.03;;;;;;;14.87;39.30;102940.50;4992269;28;20530;-86
2022/01/21 04:08:05;;;;;;;6.70;2.20;;;;;;;14.86;39.18;102933.47;4992450;28;20585;-86
2022/01/21 04:10:31;;;;;;;5.43;2.75;;;;;;;14.78;38.93;102931.19;4992465;28;20088;-86
2022/01/21 04:12:57;;;;;;;6.13;3.10;;;;;;;14.77;39.29;102936.53;4992290;28;20465;-86
2022/01/21 04:15:23;;;;;;;6.63;2.40;;;;;;;14.72;39.31;102933.25;4992173;28;20029;-86
2022/01/21 04:17:48;;;;;;;7.57;2.58;;;;;;;14.73;39.26;102932.31;4991881;28;20481;-86
2022/01/21 04:20:14;;;;;;;8.48;2.70;;;;;;;14.70;39.14;102932.47;4992168;28;20049;-85
2022/01/21 04:22:40;;;;;;;5.25;2.20;;;;;;;14.66;39.14;102929.09;4991996;28;20030;-86
2022/01/21 04:25:06;;;;;;;6.32;2.58;;;;;;;14.61;39.21;102926.66;4992235;28;20109;-86
2022/01/21 04:27:32;;;;;;;8.70;2.70;;;;;;;14.64;39.01;102925.66;4992246;28;20069;-86
2022/01/21 04:29:58;;;;;;;7.00;3.00;;;;;;;14.71;39.13;102927.13;4995005;28;20030;-86
2022/01/21 04:32:23;;;;;;;5.60;3.28;;;;;;;14.77;39.26;102931.25;4995858;28;20076;-86
2022/01/21 04:34:49;;;;;;;7.85;2.90;;;;;;;14.79;39.13;102930.25;4995821;28;20034;-86
2022/01/21 04:37:16;;;;;;;7.68;3.22;;;;;;;14.71;38.86;102931.53;4995773;28;20089;-86
2022/01/21 04:39:49;;;;;;;8.93;2.97;;;;;;;14.85;39.24;102929.13;4995873;28;20038;-86
2022/01/21 04:47:28;;;;;;;7.38;2.50;;;;;;;14.93;38.91;102929.63;4996014;28;20099;-85
2022/01/21 04:49:54;;;;;;;6.65;2.58;;;;;;;14.83;39.23;102921.25;4995677;28;20030;-86
2022/01/21 04:52:20;;;;;;;9.15;3.30;;;;;;;14.71;38.96;102920.94;4995669;28;20038;-86
2022/01/21 04:54:45;;;;;;;5.82;2.75;;;;;;;14.85;38.91;102927.34;4995433;28;20033;-86
2022/01/21 04:57:12;;;;;;;5.57;2.60;;;;;;;14.84;38.95;102919.47;4995425;28;20465;-86
2022/01/21 04:59:38;;;;;;;4.55;2.75;;;;;;;14.81;39.25;102920.47;4995067;28;20084;-86
2022/01/21 05:02:05;;;;;;;6.50;3.42;;;;;;;14.79;39.18;102918.81;4995446;28;20022;-86
2022/01/21 05:04:30;;;;;;;10.82;3.80;;;;;;;14.75;39.22;102912.81;4995194;28;20023;-86
2022/01/21 05:06:56;;;;;;;6.60;3.38;;;;;;;14.73;38.95;102914.69;4995335;28;20038;-86
2022/01/21 05:09:31;;;;;;;6.05;2.80;;;;;;;14.71;39.34;102913.88;4995192;28;20026;-86
2022/01/21 05:11:57;;;;;;;6.72;3.15;;;;;;;14.67;39.31;102910.53;4995167;28;20465;-86
2022/01/21 05:14:28;;;;;;;7.65;3.40;;;;;;;14.61;39.27;102913.44;4994856;28;20046;-86
2022/01/21 05:17:01;;;;;;;5.57;3.15;;;;;;;14.59;39.13;102915.31;4995095;28;20034;-86
2022/01/21 05:19:27;;;;;;;4.60;2.80;;;;;;;14.36;39.57;102920.72;4992647;28;20472;-85
2022/01/21 05:21:52;;;;;;;7.63;3.38;;;;;;;14.45;39.49;102915.00;4994593;28;20084;-86
2022/01/21 05:24:22;;;;;;;9.23;3.42;;;;;;;14.48;39.32;102922.81;4994910;28;20089;-86
2022/01/21 05:26:54;;;;;;;7.72;3.20;;;;;;;14.53;39.14;102912.88;4994829;28;20404;-86
2022/01/21 05:29:30;;;;;;;10.00;3.70;;;;;;;14.56;39.52;102914.53;4994377;28;20030;-86
2022/01/21 05:31:57;;;;;;;6.30;3.17;;;;;;;14.62;39.37;102923.06;4994631;28;20035;-86
2022/01/21 05:34:22;;;;;;;6.15;3.35;;;;;;;14.66;38.46;102907.94;4994607;28;20064;-86
2022/01/21 05:36:48;;;;;;;7.45;3.25;;;;;;;14.88;38.47;102915.75;4994743;28;20050;-86
2022/01/21 05:39:15;;;;;;;7.25;3.30;;;;;;;14.83;38.58;102926.56;4994510;28;20026;-86
2022/01/21 05:41:45;;;;;;;7.63;3.25;;;;;;;14.79;38.85;102924.97;4993896;28;20054;-86
2022/01/21 05:46:22;;;;;;;6.20;3.13;;;;;;;14.80;38.64;102920.53;4994137;28;20066;-86
2022/01/21 05:47:02;;;;;;;5.50;3.55;;;;;;;14.76;38.57;102909.22;4994311;28;20030;-86
2022/01/21 05:49:30;;;;;;;7.13;3.60;;;;;;;14.74;38.62;102913.72;4994437;28;20034;-86
2022/01/21 05:52:03;;;;;;;7.72;3.33;;;;;;;14.79;38.78;102913.50;4994226;28;20030;-86
2022/01/21 05:54:29;;;;;;;7.90;2.92;;;;;;;14.76;38.66;102916.31;4994455;28;20072;-86
2022/01/21 05:56:55;;;;;;;9.25;3.30;;;;;;;14.76;38.74;102917.16;4994391;28;20026;-86
2022/01/21 05:59:20;;;;;;;7.93;3.17;;;;;;;14.68;38.68;102917.50;4993939;28;20038;-86
2022/01/21 06:01:46;;;;;;;8.07;3.05;;;;;;;14.61;38.72;102921.38;4994368;28;20030;-86
2022/01/21 06:04:12;;;;;;;5.53;2.70;;;;;;;14.57;38.93;102922.41;4994056;28;20073;-86
2022/01/21 06:06:37;;;;;;;6.70;2.78;;;;;;;14.53;39.05;102917.31;4994152;28;20384;-86
2022/01/21 06:09:04;;;;;;;5.45;2.67;;;;;;;14.50;39.13;102922.75;4994148;28;20042;-86
2022/01/21 06:11:30;;;;;;;6.85;2.58;;;;;;;14.50;38.95;102934.19;4994098;28;20030;-86
2022/01/21 06:13:55;;;;;;;6.35;2.88;;;;;;;14.48;39.00;102936.03;4993740;28;20596;-85
2022/01/21 06:16:22;;;;;;;6.95;2.90;;;;;;;14.52;39.22;102939.41;4993671;28;20038;-86
2022/01/21 06:18:47;;;;;;;9.05;2.95;;;;;;;14.51;39.13;102938.53;4994238;28;20484;-86
2022/01/21 06:21:13;;;;;;;6.45;2.67;;;;;;;14.52;39.09;102934.97;4994047;28;20037;-85
2022/01/21 06:23:38;;;;;;;6.55;2.60;;;;;;;14.55;38.76;102937.47;4993761;28;20480;-85
2022/01/21 06:26:04;;;;;;;6.63;2.70;;;;;;;14.60;39.03;102942.59;4993847;28;20426;-85
2022/01/21 06:28:29;;;;;;;6.70;2.72;;;;;;;14.58;39.16;102932.09;4993391;28;20093;-85
2022/01/21 06:30:55;;;;;;;5.95;2.42;;;;;;;14.58;38.58;102928.59;4993696;28;20113;-85
2022/01/21 06:33:21;;;;;;;6.63;2.58;;;;;;;14.57;38.60;102934.78;4993616;28;20030;-85
2022/01/21 06:35:47;;;;;;;5.03;2.38;;;;;;;14.73;38.86;102935.84;4993727;28;20396;-83
2022/01/21 06:38:13;;;;;;;4.55;2.13;;;;;;;14.80;38.64;102939.91;4993770;28;20109;-82
2022/01/21 06:40:38;;;;;;;4.85;2.30;;;;;;;14.80;38.46;102945.19;4993520;28;20030;-88
2022/01/21 06:43:04;;;;;;;3.70;2.20;;;;;;;14.75;38.77;102943.69;4993107;28;20130;-88
2022/01/21 06:45:30;;;;;;;7.45;2.30;;;;;;;14.75;38.65;102943.69;4993298;28;20037;-84
2022/01/21 06:47:58;;;;;;;6.03;2.10;;;;;;;14.72;38.54;102941.19;4993131;28;20473;-85
2022/01/21 06:50:24;;;;;;;5.53;2.33;;;;;;;14.72;38.79;102943.84;4992869;28;20476;-85
2022/01/21 06:52:50;;;;;;;8.23;2.15;;;;;;;14.70;38.72;102941.25;4993044;28;20065;-84
2022/01/21 06:55:15;;;;;;;3.25;2.00;;;;;;;14.64;38.64;102937.09;4992814;28;20073;-83
2022/01/21 06:57:40;;;;;;;8.65;3.38;;;;;;;14.58;38.65;102941.81;4993342;28;20101;-81
2022/01/21 07:00:13;;;;;;;3.70;1.83;;;;;;;14.57;38.93;102943.56;4993174;28;20023;-84
2022/01/21 07:02:39;;;;;;;5.72;2.15;;;;;;;14.58;38.35;102942.66;4992953;28;20022;-84
2022/01/21 07:05:05;;;;;;;5.65;1.92;;;;;;;14.56;38.64;102940.97;4993330;28;20424;-84
2022/01/21 07:07:31;;;;;;;4.75;1.83;;;;;;;14.47;38.80;102944.88;4993269;28;20027;-85
2022/01/21 07:09:56;;;;;;;5.97;2.15;;;;;;;14.19;40.90;102948.72;4992803;28;20081;-81
2022/01/21 07:12:22;;;;;;;20.02;3.00;;;;;;;14.60;41.54;102947.88;4992889;28;20026;-82
2022/01/21 07:14:47;;;;;;;6.03;2.40;;;;;;;14.72;42.43;102949.97;4994073;28;20084;-82
2022/01/21 07:17:13;;;;;;;7.78;2.20;;;;;;;14.75;43.03;102944.56;4997961;28;20041;-82
2022/01/21 07:19:38;;;;;;;4.50;1.90;;;;;;;14.64;43.52;102952.09;4995658;28;20026;-82
2022/01/21 07:22:04;;;;;;;5.43;1.67;;;;;;;14.78;44.62;102943.56;4993172;28;20408;-82
2022/01/21 07:24:30;;;;;;;6.50;2.08;;;;;;;14.88;44.01;102953.63;4992106;28;20022;-82
2022/01/21 07:26:55;;;;;;;6.60;2.42;;;;;;;14.93;44.37;102957.84;4992348;28;20500;-83
2022/01/21 07:29:21;;;;;;;10.80;3.28;;;;;;;14.68;45.07;102945.75;4992409;28;20388;-83
2022/01/21 07:31:46;;;;;;;6.60;2.15;;;;;;;14.75;45.74;102948.97;4992589;28;20054;-82
2022/01/21 07:34:12;;;;;;;15.52;2.20;;;;;;;15.02;46.11;102960.94;4992437;28;20043;-83
2022/01/21 07:36:37;;;;;;;8.68;2.22;;;;;;;15.13;46.01;102964.91;4990714;28;20540;-81
2022/01/21 07:39:05;;;;;;;4.13;2.05;;;;;;;15.03;44.99;102954.72;4991200;28;20057;-81
2022/01/21 07:41:30;;;;;;;5.15;2.10;;;;;;;15.07;46.24;102955.44;4991943;28;20026;-81
2022/01/21 07:43:56;;;;;;;5.85;1.92;;;;;;;15.12;44.88;102968.44;4991113;28;20053;-81
2022/01/21 07:46:22;;;;;;;7.25;2.33;;;;;;;15.05;45.44;102968.75;4973734;28;20046;-80
2022/01/21 07:48:47;;;;;;;7.15;2.25;;;;;;;14.97;46.27;102965.59;4991585;28;20101;-80
2022/01/21 07:51:13;;;;;;;5.38;2.13;;;;;;;14.75;46.89;102962.19;4991314;28;20022;-79
2022/01/21 07:53:38;;;;;;;5.35;2.00;;;;;;;15.05;48.68;102968.75;4990173;28;20040;-84
2022/01/21 07:56:04;;;;;;;9.85;2.17;;;;;;;15.08;47.05;102971.22;4991807;28;20031;-83
2022/01/21 07:58:30;;;;;;;4.70;2.00;;;;;;;14.86;47.81;102976.66;4992339;28;20031;-81
2022/01/21 08:00:56;;;;;;;6.45;2.22;;;;;;;14.73;48.59;102971.97;4958918;28;21684;-83
2022/01/21 08:03:23;;;;;;;8.32;2.47;;;;;;;14.92;49.06;102975.50;4998830;28;20105;-84
2022/01/21 08:05:48;;;;;;;6.53;2.08;;;;;;;14.75;48.70;102973.66;5012474;28;20489;-84
2022/01/21 08:08:14;;;;;;;4.70;1.83;;;;;;;14.79;49.12;102974.34;4978075;28;20030;-84
2022/01/21 08:10:39;;;;;;;6.00;1.70;;;;;;;14.80;48.89;102973.44;4995960;28;20089;-84
2022/01/21 08:13:04;;;;;;;4.28;1.90;;;;;;;14.72;48.55;102978.22;4994076;28;20396;-84
2022/01/21 08:15:30;;;;;;;6.50;1.70;;;;;;;14.81;48.57;102975.13;4994723;28;20385;-84
2022/01/21 08:17:56;;;;;;;7.43;1.83;;;;;;;14.84;48.00;102975.00;4995982;28;20145;-83
2022/01/21 08:20:21;;;;;;;3.78;1.70;;;;;;;14.85;47.47;102971.44;4995089;28;20389;-83
2022/01/21 08:22:47;;;;;;;8.00;1.73;;;;;;;14.67;47.37;102971.34;4992728;28;20499;-84
2022/01/21 08:25:12;;;;;;;8.82;1.75;;;;;;;14.84;46.62;102982.94;4994626;28;20026;-80
2022/01/21 08:27:38;;;;;;;7.65;1.75;;;;;;;14.84;46.74;102988.22;4995095;28;20193;-81
2022/01/21 08:30:04;;;;;;;7.20;1.40;;;;;;;14.89;45.96;102994.19;4996341;28;20653;-82
2022/01/21 08:32:30;;;;;;;5.30;1.77;;;;;;;14.91;46.00;102994.09;4994856;28;20030;-83
2022/01/21 08:34:55;;;;;;;3.67;1.20;;;;;;;15.32;48.17;102994.84;4994343;28;20569;-83
2022/01/21 08:37:21;;;;;;;6.28;1.42;;;;;;;15.35;45.14;102986.78;4993550;28;20026;-79
2022/01/21 08:39:47;;;;;;;11.57;1.65;;;;;;;15.39;45.13;102992.78;4995542;28;20034;-80
2022/01/21 08:42:12;;;;;;;8.70;1.50;;;;;;;15.72;44.51;102990.31;4995716;28;20029;-79
2022/01/21 08:44:38;;;;;;;6.07;1.40;;;;;;;15.82;43.19;102996.06;4995122;28;20030;-80
2022/01/21 08:47:04;;;;;;;2.92;1.63;;;;;;;15.90;42.66;102998.34;4994458;28;20026;-80
2022/01/21 08:49:30;;;;;;;5.05;1.60;;;;;;;15.71;42.53;102996.53;4994758;28;20061;-80
2022/01/21 08:51:57;;;;;;;4.85;1.55;;;;;;;16.03;42.22;102997.66;4985370;28;20469;-80
2022/01/21 08:54:24;;;;;;;8.43;1.30;;;;;;;16.17;42.21;102980.16;4995199;28;20035;-80
2022/01/21 08:56:51;;;;;;;5.97;1.40;;;;;;;16.30;41.52;102983.91;4995643;28;20109;-80
2022/01/21 08:59:18;;;;;;;4.60;1.23;;;;;;;16.25;41.57;102989.47;4994721;28;20041;-80
2022/01/21 09:01:48;;;;;;;4.82;1.83;;;;;;;16.42;40.93;102991.22;4994541;28;20053;-80
2022/01/21 09:04:14;;;;;;;4.72;1.33;;;;;;;16.42;40.80;102998.34;4984784;28;20084;-81
2022/01/21 09:06:40;;;;;;;4.63;1.30;;;;;;;16.29;40.37;102995.47;4994939;28;20026;-80
2022/01/21 09:09:06;;;;;;;3.58;1.40;;;;;;;16.59;41.03;103002.78;4994219;28;20034;-79
2022/01/21 09:11:31;;;;;;;8.57;1.30;;;;;;;16.65;40.49;102991.84;4993878;28;20469;-80
2022/01/21 09:13:57;;;;;;;6.35;1.27;;;;;;;16.64;40.18;102990.97;4994780;28;20029;-80
2022/01/21 09:16:24;;;;;;;3.80;1.48;;;;;;;16.78;39.86;103000.00;4995082;28;20030;-79
2022/01/21 09:18:53;;;;;;;4.38;1.30;;;;;;;16.82;39.42;102999.81;4994764;28;20037;-81
2022/01/21 09:21:21;;;;;;;2.10;1.20;;;;;;;16.91;39.59;102989.63;4994675;28;20069;-81
2022/01/21 09:23:49;;;;;;;3.72;1.27;;;;;;;16.80;39.45;102995.47;4993958;28;20022;-83
2022/01/21 09:26:19;;;;;;;5.10;1.42;;;;;;;17.03;39.25;102995.13;4994552;28;20025;-81
2022/01/21 09:28:46;;;;;;;4.90;1.55;;;;;;;17.01;39.07;102993.50;4994614;28;20542;-84
2022/01/21 09:31:12;;;;;;;4.70;1.73;;;;;;;16.96;38.77;102999.06;4993129;28;20034;-81
2022/01/21 09:33:39;;;;;;;3.65;1.83;;;;;;;16.94;39.02;103000.06;4988659;28;20030;-80
2022/01/21 09:36:04;;;;;;;7.88;1.63;;;;;;;16.95;38.37;103000.00;4993959;28;20429;-81
2022/01/21 09:38:31;;;;;;;4.55;1.75;;;;;;;16.94;38.67;102998.28;4993191;28;20085;-80
2022/01/21 09:40:57;;;;;;;3.90;2.33;;;;;;;17.00;38.28;103003.28;4994152;28;20036;-81
2022/01/21 09:43:23;;;;;;;6.93;2.28;;;;;;;16.85;38.54;103004.09;4993392;28;20034;-81
2022/01/21 09:45:52;;;;;;;8.48;3.45;;;;;;;16.85;38.67;103006.75;4993518;28;20043;-81
2022/01/21 09:48:29;;;;;;;7.55;3.33;;;;;;;16.95;38.26;102999.16;4993485;28;20069;-81
2022/01/21 09:51:00;;;;;;;6.90;2.63;;;;;;;16.96;38.57;102998.19;4994082;28;20237;-81
2022/01/21 09:53:27;;;;;;;5.70;3.00;;;;;;;17.25;38.17;103001.91;4994075;28;20022;-81
2022/01/21 09:55:56;;;;;;;7.03;2.70;;;;;;;17.43;37.38;103006.19;4994007;28;20034;-81
2022/01/21 09:58:21;;;;;;;6.22;2.55;;;;;;;17.51;37.19;102994.31;4993156;28;20057;-81
2022/01/21 10:00:47;;;;;;;9.80;2.92;;;;;;;17.82;36.81;102999.59;4993947;28;20074;-80
2022/01/21 10:03:14;;;;;;;5.22;2.97;;;;;;;18.08;36.65;103004.38;4992563;28;20035;-81
2022/01/21 10:05:43;;;;;;;8.32;3.38;;;;;;;17.97;36.45;102997.00;4993779;28;20113;-81
2022/01/21 10:08:09;;;;;;;6.20;3.13;;;;;;;18.18;36.29;102998.41;4993849;28;20060;-81
2022/01/21 10:10:35;;;;;;;6.05;2.50;;;;;;;18.33;36.03;102991.34;4993826;28;20057;-80
2022/01/21 10:13:03;;;;;;;6.88;2.97;;;;;;;18.65;35.20;102998.31;4993963;28;20031;-82
2022/01/21 10:15:29;;;;;;;9.18;3.63;;;;;;;18.77;35.25;103000.22;4993300;28;20566;-84
2022/01/21 10:18:08;;;;;;;10.85;4.03;;;;;;;18.87;34.73;102998.72;4993553;28;20117;-82
2022/01/21 10:20:33;;;;;;;8.20;3.58;;;;;;;18.90;34.63;103001.22;4993911;28;20105;-81
2022/01/21 10:23:07;;;;;;;6.82;3.03;;;;;;;18.77;34.79;102998.41;4992538;28;20572;-82
2022/01/21 10:25:35;;;;;;;9.50;3.80;;;;;;;18.63;34.89;102993.94;4993613;28;20030;-82
2022/01/21 10:28:17;;;;;;;8.05;3.92;;;;;;;18.75;35.06;103000.31;4993430;28;20485;-82
2022/01/21 10:30:44;;;;;;;15.00;4.50;;;;;;;18.71;34.87;103004.13;4993911;28;20568;-82
2022/01/21 10:33:21;;;;;;;10.00;4.80;;;;;;;18.72;34.93;103003.19;4993688;28;20034;-82
2022/01/21 10:35:49;;;;;;;8.13;4.18;;;;;;;18.80;34.94;103005.41;4993683;28;20062;-82
2022/01/21 10:38:15;;;;;;;10.40;4.18;;;;;;;19.34;34.34;103000.22;4984598;28;20423;-82
2022/01/21 10:40:41;;;;;;;10.00;5.38;;;;;;;19.18;34.27;102992.34;4993483;28;20057;-82
2022/01/21 10:43:15;;;;;;;10.45;4.68;;;;;;;18.99;34.60;102994.44;4992131;28;20038;-82
2022/01/21 10:45:54;;;;;;;11.98;4.97;;;;;;;19.10;34.76;102989.31;4993450;28;20031;-82
2022/01/21 10:48:20;;;;;;;12.82;4.65;;;;;;;18.98;34.99;102993.59;4993462;28;20030;-82
2022/01/21 10:50:45;;;;;;;10.55;4.47;;;;;;;19.10;34.62;102991.97;4993691;28;20036;-82
2022/01/21 10:53:29;;;;;;;9.50;4.97;;;;;;;19.13;34.35;102993.56;4992844;28;20022;-82
2022/01/21 10:56:08;;;;;;;8.35;4.53;;;;;;;19.80;33.78;102994.56;4973996;28;20038;-82
2022/01/21 10:58:39;;;;;;;12.98;4.90;;;;;;;19.69;33.88;103002.41;4973866;28;20556;-82
2022/01/21 11:01:12;;;;;;;9.60;4.70;;;;;;;19.40;33.69;102993.63;4973808;28;20105;-82
2022/01/21 11:04:10;;;;;;;12.07;4.65;;;;;;;19.53;33.91;102999.88;4973593;28;20034;-82
2022/01/21 11:06:49;;;;;;;9.48;4.63;;;;;;;19.34;34.22;102994.03;4973892;28;20381;-82
2022/01/21 11:09:19;;;;;;;8.63;4.20;;;;;;;19.40;33.88;103004.28;4990628;28;20113;-82
2022/01/21 11:11:47;;;;;;;6.03;3.38;;;;;;;19.43;34.06;102993.41;4992959;28;20555;-82
2022/01/21 11:14:16;;;;;;;6.18;3.72;;;;;;;19.44;33.97;102996.97;4992741;28;20033;-82
2022/01/21 11:16:45;;;;;;;7.28;3.55;;;;;;;19.43;34.21;102985.41;4992906;28;20054;-82
2022/01/21 11:19:13;;;;;;;7.97;3.92;;;;;;;19.52;33.56;102991.97;4992586;28;20026;-82
2022/01/21 11:21:42;;;;;;;7.30;4.10;;;;;;;19.53;33.68;102983.91;4992853;28;20026;-82
2022/01/21 11:24:09;;;;;;;6.43;3.35;;;;;;;19.57;33.79;102987.22;4992763;28;20026;-82
2022/01/21 11:26:35;;;;;;;7.38;3.80;;;;;;;19.79;33.32;102981.34;4992640;28;20499;-82
2022/01/21 11:29:03;;;;;;;9.90;4.78;;;;;;;19.67;33.42;102980.31;4992408;28;20039;-82
2022/01/21 11:31:29;;;;;;;6.60;2.65;;;;;;;19.57;33.81;102984.56;4992367;28;20026;-82
2022/01/21 11:33:54;;;;;;;5.15;2.78;;;;;;;19.65;33.52;102982.25;4992710;28;20034;-82
2022/01/21 11:36:20;;;;;;;9.35;3.53;;;;;;;19.49;33.93;102971.72;4992735;28;20384;-82
2022/01/21 11:38:48;;;;;;;9.50;3.45;;;;;;;19.52;33.86;102971.50;4990618;28;20431;-82
2022/01/21 11:41:14;;;;;;;8.05;3.25;;;;;;;19.56;33.60;102966.84;4991319;28;20022;-82
2022/01/21 11:43:48;;;;;;;5.88;2.92;;;;;;;19.54;33.93;102966.09;4992383;28;20026;-82
2022/01/21 11:48:57;;;;;;;7.90;2.90;;;;;;;19.47;34.27;102964.78;4992600;28;20033;-82
2022/01/21 11:51:31;;;;;;;8.88;3.25;;;;;;;19.38;33.94;102964.41;4992470;28;20172;-82
2022/01/21 11:54:01;;;;;;;8.60;3.30;;;;;;;19.38;34.23;102958.25;4992245;28;20113;-82
2022/01/21 11:56:42;;;;;;;9.10;3.20;;;;;;;19.27;34.45;102950.94;4991981;28;20054;-82
2022/01/21 11:59:09;;;;;;;8.50;3.08;;;;;;;19.13;34.62;102950.97;4992436;28;20022;-82
2022/01/21 12:01:47;;;;;;;7.82;3.50;;;;;;;19.02;34.28;102949.84;4992448;28;20026;-82
2022/01/21 12:04:15;;;;;;;4.57;2.25;;;;;;;18.92;34.91;102946.06;4991526;28;20388;-82
2022/01/21 12:06:40;;;;;;;7.32;2.65;;;;;;;18.98;34.30;102945.69;4992348;28;20022;-82
2022/01/21 12:09:09;;;;;;;4.90;2.90;;;;;;;19.03;34.97;102940.03;4992341;28;20018;-82
2022/01/21 12:11:38;;;;;;;6.18;3.03;;;;;;;19.04;34.65;102939.13;4992534;28;20553;-82
2022/01/21 12:14:36;;;;;;;6.10;3.28;;;;;;;18.92;34.69;102937.22;4992320;28;20022;-82